Time;durP1;ratioP1;P1;durP2;ratioP2;P2;SDS_P1;SDS_P2;PMS_P1;PMS_P2;Temp;Humidity;BMP_temperature;BMP_pressure;BME280_temperature;BME280_humidity;BME280_pressure;Samples;Min_cycle;Max_cycle;Signal;HPM_P1;HPM_P2
2022/03/21 00:00:49;;;;;;;118.27;53.10;;;2.00;99.90;;;;;;4957887;28;20070;-84
2022/03/21 00:03:18;;;;;;;109.20;51.07;;;2.00;99.90;;;;;;4985767;28;20065;-84
2022/03/21 00:05:45;;;;;;;124.33;53.53;;;2.00;99.90;;;;;;4993290;28;20046;-83
2022/03/21 00:08:12;;;;;;;112.03;51.13;;;2.00;99.90;;;;;;4976028;28;20042;-84
2022/03/21 00:10:39;;;;;;;116.47;51.37;;;2.00;99.90;;;;;;4993135;28;20408;-84
2022/03/21 00:13:05;;;;;;;121.97;54.93;;;2.00;99.90;;;;;;4993348;28;20042;-83
2022/03/21 00:15:32;;;;;;;138.77;56.90;;;2.00;99.90;;;;;;4991662;28;20038;-84
2022/03/21 00:18:02;;;;;;;138.87;53.33;;;2.00;99.90;;;;;;4992926;28;20060;-87
2022/03/21 00:20:29;;;;;;;122.60;54.20;;;1.90;99.90;;;;;;4993492;28;20077;-87
2022/03/21 00:22:56;;;;;;;150.73;60.33;;;1.90;99.90;;;;;;4991377;28;20554;-87
2022/03/21 00:25:22;;;;;;;153.07;61.63;;;2.00;99.90;;;;;;4977751;28;20392;-87
2022/03/21 00:27:48;;;;;;;140.13;58.03;;;2.00;99.90;;;;;;4993472;28;20042;-87
2022/03/21 00:30:14;;;;;;;150.27;60.10;;;2.00;99.90;;;;;;4976611;28;20516;-87
2022/03/21 00:32:41;;;;;;;134.10;55.70;;;2.00;99.90;;;;;;4992124;28;20370;-87
2022/03/21 00:35:09;;;;;;;185.20;66.20;;;2.70;99.90;;;;;;4990257;28;20038;-87
2022/03/21 00:37:37;;;;;;;222.97;76.63;;;1.90;99.90;;;;;;4977023;28;20044;-87
2022/03/21 00:40:05;;;;;;;147.27;58.43;;;3.00;99.90;;;;;;4993049;28;20038;-87
2022/03/21 00:42:34;;;;;;;143.77;59.27;;;1.90;99.90;;;;;;4976850;28;20030;-87
2022/03/21 00:45:05;;;;;;;144.67;58.73;;;2.00;99.90;;;;;;4977986;28;20042;-87
2022/03/21 00:47:31;;;;;;;134.83;57.47;;;2.00;99.90;;;;;;4992147;28;20085;-87
2022/03/21 00:49:58;;;;;;;143.20;57.83;;;3.10;99.90;;;;;;4990677;28;20038;-87
2022/03/21 00:52:23;;;;;;;136.80;57.77;;;1.90;99.90;;;;;;4989952;28;20050;-83
2022/03/21 00:54:49;;;;;;;144.70;57.83;;;2.00;99.90;;;;;;4976511;28;20134;-83
2022/03/21 00:57:15;;;;;;;147.27;60.23;;;2.60;99.90;;;;;;5008588;28;20035;-83
2022/03/21 00:59:41;;;;;;;139.77;59.27;;;2.00;99.90;;;;;;4992028;28;20077;-84
2022/03/21 01:02:08;;;;;;;142.47;59.77;;;2.10;99.90;;;;;;4976274;28;20404;-83
2022/03/21 01:04:36;;;;;;;142.53;61.23;;;2.10;99.90;;;;;;4976623;28;20081;-83
2022/03/21 01:07:02;;;;;;;150.10;61.60;;;2.10;99.90;;;;;;4973246;28;20505;-83
2022/03/21 01:09:28;;;;;;;145.37;60.67;;;2.10;99.90;;;;;;4990249;28;20073;-83
2022/03/21 01:11:54;;;;;;;131.50;57.43;;;2.10;99.90;;;;;;5007847;28;20061;-83
2022/03/21 01:14:19;;;;;;;136.03;60.07;;;2.60;99.90;;;;;;4991625;28;20100;-83
2022/03/21 01:16:46;;;;;;;139.53;60.27;;;2.20;99.90;;;;;;4991750;28;20477;-83
2022/03/21 01:19:12;;;;;;;140.87;57.37;;;2.20;99.90;;;;;;4975735;28;20121;-83
2022/03/21 01:21:37;;;;;;;139.17;59.20;;;2.10;99.90;;;;;;4975693;28;20141;-83
2022/03/21 01:24:03;;;;;;;136.60;58.90;;;3.10;99.90;;;;;;4970801;28;20039;-84
2022/03/21 01:26:29;;;;;;;140.70;58.77;;;2.20;99.90;;;;;;4990007;28;20046;-87
2022/03/21 01:28:57;;;;;;;133.70;59.03;;;2.10;99.90;;;;;;4990735;28;20081;-87
2022/03/21 01:31:22;;;;;;;131.83;57.27;;;2.00;99.90;;;;;;4976034;28;20049;-87
2022/03/21 01:33:48;;;;;;;140.87;58.07;;;2.00;99.90;;;;;;4991754;28;20042;-87
2022/03/21 01:36:14;;;;;;;133.37;59.43;;;2.00;99.90;;;;;;4990180;28;20046;-87
2022/03/21 01:38:40;;;;;;;140.57;57.77;;;2.00;99.90;;;;;;4975711;28;20082;-87
2022/03/21 01:41:05;;;;;;;137.13;57.57;;;2.40;99.90;;;;;;4973610;28;20107;-86
2022/03/21 01:43:31;;;;;;;134.57;56.93;;;1.90;99.90;;;;;;4973105;28;20042;-87
2022/03/21 01:45:57;;;;;;;139.30;57.27;;;2.70;99.90;;;;;;4939813;28;20057;-87
2022/03/21 01:48:22;;;;;;;145.87;58.57;;;1.90;99.90;;;;;;4974523;28;20077;-87
2022/03/21 01:50:48;;;;;;;139.80;56.90;;;1.80;99.90;;;;;;4990336;28;20046;-87
2022/03/21 01:55:59;;;;;;;137.03;56.90;;;1.70;99.90;;;;;;4975022;28;20042;-87
2022/03/21 01:58:25;;;;;;;140.90;57.87;;;1.60;99.90;;;;;;4956720;28;20382;-83
2022/03/21 02:00:51;;;;;;;137.03;54.07;;;2.20;99.90;;;;;;4974282;28;20476;-83
2022/03/21 02:03:19;;;;;;;138.13;56.43;;;2.20;99.90;;;;;;4989033;28;20050;-84
2022/03/21 02:05:47;;;;;;;132.93;55.67;;;1.50;99.90;;;;;;4991436;28;20125;-83
2022/03/21 02:08:13;;;;;;;130.27;57.73;;;1.50;99.90;;;;;;4991004;28;20073;-83
2022/03/21 02:10:42;;;;;;;127.90;54.40;;;1.40;99.90;;;;;;5007275;28;20049;-84
2022/03/21 02:13:09;;;;;;;146.00;56.13;;;1.00;99.90;;;;;;4988728;28;20346;-83
2022/03/21 02:15:35;;;;;;;140.47;56.50;;;1.30;99.90;;;;;;4989623;28;20050;-87
2022/03/21 02:18:02;;;;;;;137.77;53.63;;;1.30;99.90;;;;;;4959358;28;20054;-87
2022/03/21 02:20:34;;;;;;;121.03;53.27;;;1.20;99.90;;;;;;4975408;28;20821;-87
2022/03/21 02:23:30;;;;;;;124.43;54.50;;;1.20;99.90;;;;;;4990796;28;20046;-86
2022/03/21 02:25:57;;;;;;;124.53;55.43;;;1.20;99.90;;;;;;4990761;28;20046;-86
2022/03/21 02:28:26;;;;;;;129.47;54.43;;;1.20;99.90;;;;;;4991479;28;20049;-87
2022/03/21 02:30:53;;;;;;;134.70;57.27;;;1.30;99.90;;;;;;4992861;28;20374;-86
2022/03/21 02:33:19;;;;;;;136.70;57.07;;;1.50;99.90;;;;;;4990092;28;20030;-83
2022/03/21 02:35:49;;;;;;;135.47;57.57;;;1.40;99.90;;;;;;4989798;28;20420;-83
2022/03/21 02:38:18;;;;;;;136.50;57.33;;;1.40;99.90;;;;;;4970273;28;20500;-83
2022/03/21 02:40:43;;;;;;;136.10;58.80;;;1.40;99.90;;;;;;4975110;28;20038;-83
2022/03/21 02:43:09;;;;;;;131.97;57.70;;;1.50;99.90;;;;;;4987894;28;20108;-83
2022/03/21 02:45:35;;;;;;;129.70;57.77;;;1.40;99.90;;;;;;4989248;28;20369;-83
2022/03/21 02:48:01;;;;;;;135.50;57.23;;;1.40;99.90;;;;;;4991023;28;20077;-83
2022/03/21 02:50:30;;;;;;;135.50;57.93;;;1.40;99.90;;;;;;4991668;28;20392;-83
2022/03/21 02:52:57;;;;;;;135.70;56.43;;;1.40;99.90;;;;;;4990846;28;20045;-83
2022/03/21 02:55:23;;;;;;;138.13;57.40;;;1.40;99.90;;;;;;4990530;28;20141;-83
2022/03/21 02:57:49;;;;;;;139.37;58.17;;;1.50;99.90;;;;;;4958183;28;20528;-83
2022/03/21 03:00:15;;;;;;;145.33;61.17;;;1.40;99.90;;;;;;4974412;28;20049;-83
2022/03/21 03:02:41;;;;;;;140.60;57.97;;;1.40;99.90;;;;;;4973611;28;20097;-83
2022/03/21 03:05:07;;;;;;;139.80;58.37;;;2.30;99.90;;;;;;4972992;28;20047;-87
2022/03/21 03:07:34;;;;;;;144.67;60.37;;;1.40;99.90;;;;;;4958774;28;20060;-86
2022/03/21 03:10:00;;;;;;;138.40;58.13;;;1.40;99.90;;;;;;4974713;28;20388;-86
2022/03/21 03:12:26;;;;;;;149.03;60.23;;;1.30;99.90;;;;;;4974865;28;20042;-86
2022/03/21 03:14:52;;;;;;;143.33;59.80;;;1.30;99.90;;;;;;4978172;28;20038;-86
2022/03/21 03:17:17;;;;;;;148.73;60.87;;;1.30;99.90;;;;;;4978537;28;20030;-86
2022/03/21 03:19:43;;;;;;;148.93;61.53;;;1.40;99.90;;;;;;4978412;28;20391;-86
2022/03/21 03:22:09;;;;;;;149.47;61.70;;;1.50;99.90;;;;;;4946334;28;20042;-87
2022/03/21 03:24:38;;;;;;;148.73;60.37;;;1.40;99.90;;;;;;4995119;28;20034;-87
2022/03/21 03:27:05;;;;;;;164.50;61.60;;;1.40;99.90;;;;;;4970842;28;20117;-87
2022/03/21 03:29:31;;;;;;;169.70;64.83;;;1.40;99.90;;;;;;4978253;28;20042;-87
2022/03/21 03:32:00;;;;;;;153.33;61.97;;;1.50;99.90;;;;;;4994503;28;20053;-87
2022/03/21 03:34:26;;;;;;;165.57;63.13;;;2.40;99.90;;;;;;4977318;28;20137;-87
2022/03/21 03:36:52;;;;;;;169.00;62.10;;;1.40;99.90;;;;;;4994070;28;20062;-87
2022/03/21 03:39:18;;;;;;;160.33;63.07;;;1.40;99.90;;;;;;4993809;28;20126;-83
2022/03/21 03:41:44;;;;;;;151.80;62.33;;;1.80;99.90;;;;;;4978409;28;20039;-83
2022/03/21 03:44:10;;;;;;;166.77;63.50;;;1.40;99.90;;;;;;4977770;28;20489;-83
2022/03/21 03:46:36;;;;;;;159.93;63.60;;;1.40;99.90;;;;;;4977812;28;20051;-83
2022/03/21 03:49:02;;;;;;;178.37;67.53;;;1.50;99.90;;;;;;4992934;28;20054;-83
2022/03/21 03:51:27;;;;;;;169.67;65.67;;;1.50;99.90;;;;;;4975529;28;20041;-83
2022/03/21 03:53:53;;;;;;;175.23;67.50;;;1.50;99.90;;;;;;4994031;28;20074;-83
2022/03/21 03:56:19;;;;;;;175.60;64.90;;;1.60;99.90;;;;;;4993373;28;20113;-87
2022/03/21 03:58:45;;;;;;;161.13;63.23;;;1.50;99.90;;;;;;4993879;28;20038;-87
2022/03/21 04:01:11;;;;;;;170.80;62.23;;;1.50;99.90;;;;;;4964939;28;20044;-87
2022/03/21 04:03:45;;;;;;;166.97;62.03;;;1.80;99.90;;;;;;5015183;23;20053;-87
2022/03/21 04:06:22;;;;;;;176.70;64.43;;;1.50;99.90;;;;;;4948101;28;20035;-87
2022/03/21 04:08:50;;;;;;;165.13;63.63;;;1.50;99.90;;;;;;4977311;28;20038;-87
2022/03/21 04:11:16;;;;;;;158.50;61.03;;;1.50;99.90;;;;;;4994116;28;20038;-83
2022/03/21 04:13:43;;;;;;;169.63;65.20;;;1.50;99.90;;;;;;4997672;28;20097;-83
2022/03/21 04:16:09;;;;;;;162.27;62.20;;;1.50;99.90;;;;;;4998085;28;20038;-83
2022/03/21 04:18:36;;;;;;;170.07;63.60;;;1.60;99.90;;;;;;4988561;28;20040;-82
2022/03/21 04:21:03;;;;;;;160.70;60.43;;;2.60;99.90;;;;;;4986027;28;20100;-83
2022/03/21 04:23:28;;;;;;;161.00;59.27;;;2.40;99.90;;;;;;4982698;28;20042;-83
2022/03/21 04:25:54;;;;;;;164.07;60.70;;;1.40;99.90;;;;;;5001471;28;20122;-83
2022/03/21 04:28:20;;;;;;;148.60;58.30;;;2.60;99.90;;;;;;4989335;28;20037;-83
2022/03/21 04:30:46;;;;;;;147.90;58.50;;;1.40;99.90;;;;;;4987224;28;20035;-83
2022/03/21 04:33:12;;;;;;;151.80;57.83;;;1.40;99.90;;;;;;4969186;28;20089;-83
2022/03/21 04:35:39;;;;;;;162.57;57.87;;;1.40;99.90;;;;;;4987907;28;20038;-83
2022/03/21 04:38:13;;;;;;;146.43;56.97;;;1.30;99.90;;;;;;5008324;28;20133;-83
2022/03/21 04:40:50;;;;;;;162.83;59.07;;;1.30;99.90;;;;;;4999000;28;20070;-83
2022/03/21 04:43:18;;;;;;;143.93;56.80;;;1.30;99.90;;;;;;5001093;28;20109;-83
2022/03/21 04:45:45;;;;;;;142.23;55.87;;;2.50;99.90;;;;;;4999696;28;20046;-86
2022/03/21 04:48:11;;;;;;;154.80;57.43;;;1.30;99.90;;;;;;5000858;28;20038;-86
2022/03/21 04:50:37;;;;;;;151.93;55.53;;;1.50;99.90;;;;;;4985539;28;20046;-86
2022/03/21 04:53:04;;;;;;;151.83;54.60;;;1.20;99.90;;;;;;5000750;28;20373;-86
2022/03/21 04:55:30;;;;;;;148.73;55.93;;;1.20;99.90;;;;;;5001016;28;20056;-86
2022/03/21 04:57:56;;;;;;;146.03;55.77;;;1.20;99.90;;;;;;5004685;28;20038;-86
2022/03/21 05:00:22;;;;;;;141.87;55.13;;;1.20;99.90;;;;;;4968397;28;20092;-86
2022/03/21 05:02:47;;;;;;;160.00;56.10;;;1.10;99.90;;;;;;5000662;28;20481;-86
2022/03/21 05:05:13;;;;;;;149.07;53.53;;;1.10;99.90;;;;;;4987761;28;20049;-86
2022/03/21 05:07:43;;;;;;;128.97;51.97;;;1.10;99.90;;;;;;4973789;28;21707;-86
2022/03/21 05:10:15;;;;;;;154.80;54.23;;;1.00;99.90;;;;;;4995561;28;20097;-86
2022/03/21 05:12:41;;;;;;;149.97;55.30;;;1.00;99.90;;;;;;4989523;28;20153;-86
2022/03/21 05:15:07;;;;;;;142.73;53.00;;;1.00;99.90;;;;;;4974821;28;20129;-86
2022/03/21 05:17:37;;;;;;;159.90;52.70;;;1.00;99.90;;;;;;4990661;28;20038;-86
2022/03/21 05:20:15;;;;;;;131.07;50.27;;;1.00;99.90;;;;;;4991799;28;20050;-83
2022/03/21 05:22:42;;;;;;;159.10;53.27;;;1.00;99.90;;;;;;4991608;28;20042;-83
2022/03/21 05:36:12;;;;;;;130.27;50.40;;;1.00;99.90;;;;;;5011245;28;20081;-86
2022/03/21 05:38:38;;;;;;;141.27;51.73;;;1.00;99.90;;;;;;4976022;28;20481;-86
2022/03/21 05:41:04;;;;;;;145.97;52.10;;;1.10;99.90;;;;;;4974893;28;20057;-86
2022/03/21 05:43:34;;;;;;;156.07;52.97;;;1.10;99.90;;;;;;4972498;28;20038;-86
2022/03/21 05:46:01;;;;;;;150.97;53.93;;;1.10;99.90;;;;;;4975650;28;20409;-86
2022/03/21 05:51:12;;;;;;;132.93;49.20;;;1.10;99.90;;;;;;4991379;28;20127;-83
2022/03/21 05:53:38;;;;;;;132.13;49.27;;;1.10;99.90;;;;;;4975671;28;20115;-82
2022/03/21 05:56:04;;;;;;;143.73;50.83;;;1.20;99.90;;;;;;4975045;28;20042;-83
2022/03/21 05:58:30;;;;;;;116.37;48.00;;;1.20;99.90;;;;;;4995157;28;20121;-83
2022/03/21 06:00:56;;;;;;;114.00;48.10;;;1.20;99.90;;;;;;4977601;28;20176;-83
2022/03/21 06:03:24;;;;;;;117.80;48.27;;;2.30;99.90;;;;;;4998036;28;20132;-83
2022/03/21 06:05:50;;;;;;;142.43;55.17;;;1.70;99.90;;;;;;4997614;28;20164;-82
2022/03/21 06:08:17;;;;;;;132.07;51.00;;;1.30;99.90;;;;;;4993708;28;20499;-83
2022/03/21 06:10:42;;;;;;;128.80;48.57;;;1.30;99.90;;;;;;4966266;28;20042;-83
2022/03/21 06:13:08;;;;;;;114.40;47.83;;;1.40;99.90;;;;;;4998051;28;20033;-83
2022/03/21 06:15:39;;;;;;;114.93;47.17;;;1.50;99.90;;;;;;4987964;28;20043;-83
2022/03/21 06:18:12;;;;;;;118.67;46.40;;;1.60;99.90;;;;;;5022147;28;20096;-83
2022/03/21 06:20:39;;;;;;;110.20;46.80;;;1.70;99.90;;;;;;5000952;28;20049;-82
2022/03/21 06:23:06;;;;;;;124.37;47.77;;;2.60;99.90;;;;;;4977475;28;20061;-82
2022/03/21 06:25:32;;;;;;;102.17;45.57;;;1.90;99.90;;;;;;4982172;28;20397;-86
2022/03/21 06:27:58;;;;;;;118.20;46.93;;;2.00;99.90;;;;;;4983752;28;20069;-86
2022/03/21 06:30:24;;;;;;;106.30;45.73;;;2.80;99.90;;;;;;5002772;28;20100;-86
2022/03/21 06:32:50;;;;;;;107.03;48.00;;;2.40;99.90;;;;;;5001630;28;20042;-85
2022/03/21 06:35:16;;;;;;;97.57;46.20;;;4.00;99.90;;;;;;4982533;28;20101;-86
2022/03/21 06:37:42;;;;;;;91.50;45.00;;;4.20;99.90;;;;;;4973012;28;20041;-85
2022/03/21 06:40:09;;;;;;;88.53;45.88;;;4.20;99.90;;;;;;5023094;28;20114;-85
2022/03/21 06:42:35;;;;;;;89.63;45.40;;;4.80;99.90;;;;;;4975105;28;20045;-85
2022/03/21 06:45:01;;;;;;;74.03;41.22;;;5.20;99.90;;;;;;4975033;28;20038;-86
2022/03/21 06:47:27;;;;;;;74.10;42.28;;;5.70;99.90;;;;;;4970523;28;20053;-86
2022/03/21 06:49:53;;;;;;;66.28;39.03;;;6.20;99.90;;;;;;4974092;28;20038;-86
2022/03/21 06:52:19;;;;;;;60.22;37.10;;;6.80;99.90;;;;;;4996565;28;20117;-87
2022/03/21 06:54:48;;;;;;;53.58;36.25;;;6.90;99.90;;;;;;4995924;28;20045;-87
2022/03/21 06:57:16;;;;;;;49.20;33.60;;;7.30;99.90;;;;;;4995979;28;20069;-87
2022/03/21 06:59:42;;;;;;;46.45;32.30;;;7.80;99.90;;;;;;4995951;28;20046;-82
2022/03/21 07:02:08;;;;;;;44.60;30.90;;;8.10;99.90;;;;;;4979128;28;20094;-83
2022/03/21 07:04:34;;;;;;;41.50;29.10;;;8.50;99.90;;;;;;4975001;28;20084;-82
2022/03/21 07:07:00;;;;;;;40.22;28.48;;;8.90;99.90;;;;;;4977464;28;20078;-82
2022/03/21 07:09:26;;;;;;;37.70;27.02;;;9.30;99.90;;;;;;4992921;28;20057;-83
2022/03/21 07:11:52;;;;;;;41.08;27.83;;;9.40;99.90;;;;;;4960413;28;20072;-83
2022/03/21 07:14:19;;;;;;;33.78;25.63;;;9.80;99.90;;;;;;4998418;28;20539;-83
2022/03/21 07:16:45;;;;;;;35.10;26.58;;;10.00;99.90;;;;;;4996329;28;20049;-88
2022/03/21 07:19:10;;;;;;;34.63;25.45;;;10.30;99.90;;;;;;4981727;28;20042;-88
2022/03/21 07:21:36;;;;;;;34.72;25.02;;;10.70;99.90;;;;;;4960114;28;20054;-88
2022/03/21 07:24:02;;;;;;;34.28;25.05;;;11.20;99.90;;;;;;4989533;28;20046;-88
2022/03/21 07:26:28;;;;;;;31.13;24.73;;;11.40;99.90;;;;;;4989874;28;21978;-89
2022/03/21 07:28:54;;;;;;;34.47;26.30;;;11.70;99.90;;;;;;4995654;28;20066;-88
2022/03/21 07:31:19;;;;;;;33.22;24.45;;;12.00;99.90;;;;;;4961193;28;20120;-89
2022/03/21 07:33:45;;;;;;;31.58;24.85;;;12.30;99.90;;;;;;4995376;28;20474;-89
2022/03/21 07:36:11;;;;;;;31.77;25.00;;;12.40;99.90;;;;;;4979303;28;20031;-89
2022/03/21 07:38:37;;;;;;;32.90;24.75;;;12.60;99.90;;;;;;4959972;28;20042;-89
2022/03/21 07:41:07;;;;;;;28.40;22.00;;;12.50;99.90;;;;;;5010038;28;20042;-89
2022/03/21 07:43:36;;;;;;;25.42;21.38;;;13.10;99.90;;;;;;4996792;28;20132;-88
2022/03/21 07:48:48;;;;;;;23.58;19.77;;;13.30;99.90;;;;;;4998269;28;20054;-87
2022/03/21 07:51:14;;;;;;;25.02;19.50;;;14.00;99.90;;;;;;4990932;28;20134;-89
2022/03/21 07:53:41;;;;;;;23.77;19.17;;;14.70;99.90;;;;;;4993899;28;20048;-88
2022/03/21 07:56:07;;;;;;;22.08;18.65;;;14.50;99.90;;;;;;4998679;28;20051;-89
2022/03/21 07:58:32;;;;;;;21.77;18.10;;;14.40;99.00;;;;;;5002582;28;20480;-88
2022/03/21 08:01:01;;;;;;;22.75;18.55;;;14.40;99.90;;;;;;4983351;28;20039;-88
2022/03/21 08:03:27;;;;;;;22.60;18.48;;;13.90;99.90;;;;;;4982524;28;20054;-88
2022/03/21 08:05:53;;;;;;;25.25;19.35;;;14.20;99.90;;;;;;5003356;28;20049;-88
2022/03/21 08:08:22;;;;;;;22.20;18.10;;;14.40;99.90;;;;;;4985457;28;20121;-87
2022/03/21 08:10:48;;;;;;;25.95;19.23;;;14.80;99.90;;;;;;4978270;28;20037;-87
2022/03/21 08:13:17;;;;;;;27.00;19.63;;;14.80;98.10;;;;;;4997041;28;20041;-87
2022/03/21 08:15:46;;;;;;;23.50;19.10;;;15.20;97.60;;;;;;4979023;28;20042;-87
2022/03/21 08:18:12;;;;;;;26.23;19.75;;;15.40;98.10;;;;;;4993138;28;20045;-87
2022/03/21 08:20:40;;;;;;;24.35;19.77;;;15.80;97.80;;;;;;4994981;28;20124;-87
2022/03/21 08:23:07;;;;;;;25.88;21.27;;;16.10;98.40;;;;;;4993603;28;20070;-85
2022/03/21 08:25:37;;;;;;;29.00;21.58;;;16.10;95.60;;;;;;4994666;28;20428;-85
2022/03/21 08:28:04;;;;;;;29.25;20.52;;;16.10;95.70;;;;;;4994910;28;20540;-86
2022/03/21 08:30:32;;;;;;;27.42;20.02;;;16.50;96.00;;;;;;4995794;28;20037;-86
2022/03/21 08:32:59;;;;;;;26.25;19.80;;;17.40;95.80;;;;;;4979706;28;20069;-85
2022/03/21 08:35:25;;;;;;;25.35;19.88;;;17.90;94.50;;;;;;4977156;28;20037;-86
2022/03/21 08:37:51;;;;;;;24.38;19.95;;;18.50;92.10;;;;;;4994322;28;20034;-86
2022/03/21 08:40:17;;;;;;;26.63;19.85;;;18.20;92.80;;;;;;4996678;28;20129;-86
2022/03/21 08:42:43;;;;;;;25.38;19.95;;;18.20;92.50;;;;;;4992384;28;20082;-86
2022/03/21 08:45:09;;;;;;;24.50;19.45;;;18.50;91.70;;;;;;4980746;28;20069;-85
2022/03/21 08:47:37;;;;;;;24.88;18.42;;;18.80;91.70;;;;;;4996028;28;20491;-85
2022/03/21 08:50:03;;;;;;;22.85;18.58;;;19.30;91.50;;;;;;4978474;28;20048;-85
2022/03/21 08:52:29;;;;;;;27.48;19.90;;;19.80;84.60;;;;;;4977210;28;20092;-86
2022/03/21 08:54:56;;;;;;;25.02;19.25;;;19.00;83.60;;;;;;4997623;28;20044;-83
2022/03/21 08:57:22;;;;;;;24.67;17.30;;;19.50;85.40;;;;;;4997175;28;20066;-84
2022/03/21 08:59:48;;;;;;;23.10;18.40;;;19.70;83.40;;;;;;4980518;28;20033;-84
2022/03/21 09:02:17;;;;;;;24.65;17.55;;;19.40;82.90;;;;;;4964763;28;20041;-84
2022/03/21 09:04:42;;;;;;;22.65;17.98;;;19.30;80.80;;;;;;4991697;28;20066;-84
2022/03/21 09:07:08;;;;;;;19.63;16.88;;;19.30;79.20;;;;;;4993517;28;20064;-83
2022/03/21 09:09:34;;;;;;;23.02;15.70;;;20.30;83.10;;;;;;4982854;28;20175;-83
2022/03/21 09:12:00;;;;;;;21.58;18.08;;;21.10;80.20;;;;;;5001069;28;20041;-84
2022/03/21 09:14:26;;;;;;;23.63;15.98;;;20.50;74.10;;;;;;4996966;28;20037;-84
2022/03/21 09:16:53;;;;;;;20.25;17.27;;;21.40;78.80;;;;;;4977355;28;20107;-83
2022/03/21 09:19:19;;;;;;;20.40;17.40;;;21.60;72.20;;;;;;4995756;28;20183;-84
2022/03/21 09:21:46;;;;;;;21.67;16.48;;;21.80;71.40;;;;;;4957646;28;20566;-84
2022/03/21 09:24:12;;;;;;;20.48;16.58;;;21.40;70.60;;;;;;4978526;28;20073;-84
2022/03/21 09:26:38;;;;;;;18.75;15.82;;;20.90;68.20;;;;;;4980957;28;20076;-84
2022/03/21 09:29:04;;;;;;;19.35;16.30;;;20.80;72.10;;;;;;4987601;28;20111;-87
2022/03/21 09:31:34;;;;;;;19.60;16.58;;;21.30;70.20;;;;;;4995509;28;20045;-87
2022/03/21 09:34:00;;;;;;;20.33;16.35;;;22.20;71.90;;;;;;4980294;28;20428;-87
2022/03/21 09:36:26;;;;;;;18.98;15.70;;;22.70;64.00;;;;;;4996283;28;20095;-87
2022/03/21 09:38:52;;;;;;;19.90;16.90;;;23.10;65.30;;;;;;5003394;28;20073;-87
2022/03/21 09:41:23;;;;;;;19.13;15.82;;;22.10;63.50;;;;;;4949450;28;20441;-87
2022/03/21 09:44:01;;;;;;;20.15;16.48;;;21.70;63.90;;;;;;4994951;28;20040;-87
2022/03/21 09:46:27;;;;;;;22.92;17.63;;;21.30;61.60;;;;;;4998201;28;20447;-87
2022/03/21 09:48:56;;;;;;;19.73;16.52;;;20.90;64.30;;;;;;5005424;28;20037;-86
2022/03/21 09:51:23;;;;;;;21.00;16.33;;;21.40;61.00;;;;;;4980297;28;20042;-87
2022/03/21 09:53:49;;;;;;;21.05;16.15;;;21.70;63.90;;;;;;4996319;28;20399;-87
2022/03/21 09:56:16;;;;;;;20.45;16.58;;;22.90;62.60;;;;;;4979272;28;20042;-88
2022/03/21 09:58:43;;;;;;;19.42;16.50;;;23.10;61.40;;;;;;5001020;28;20463;-87
2022/03/21 10:01:11;;;;;;;21.17;16.38;;;22.90;59.20;;;;;;4994963;28;20037;-88
2022/03/21 10:03:38;;;;;;;20.40;16.90;;;23.50;61.30;;;;;;4977847;28;20041;-88
2022/03/21 10:06:29;;;;;;;21.02;16.67;;;23.00;58.60;;;;;;4960882;28;20389;-86
2022/03/21 10:09:34;;;;;;;20.15;16.95;;;23.70;54.50;;;;;;4975762;28;20133;-85
2022/03/21 10:11:59;;;;;;;19.30;16.15;;;23.10;55.90;;;;;;4915891;28;20481;-85
2022/03/21 10:14:28;;;;;;;17.98;16.08;;;22.80;56.00;;;;;;4964082;28;20039;-85
2022/03/21 10:17:15;;;;;;;17.90;15.65;;;23.00;55.70;;;;;;4979124;28;20057;-85
2022/03/21 10:19:41;;;;;;;19.95;15.30;;;22.70;52.50;;;;;;5008110;28;20038;-84
2022/03/21 10:22:13;;;;;;;18.52;15.98;;;23.50;54.80;;;;;;4977775;28;20065;-84
2022/03/21 10:24:44;;;;;;;17.35;14.85;;;24.40;53.30;;;;;;5006698;28;20060;-84
2022/03/21 10:27:32;;;;;;;18.83;16.10;;;24.90;52.60;;;;;;4993682;28;20053;-84
2022/03/21 10:30:07;;;;;;;18.33;14.90;;;25.40;49.10;;;;;;5012550;28;20132;-84
2022/03/21 10:32:46;;;;;;;17.45;15.55;;;25.20;48.80;;;;;;5006395;23;20064;-87
2022/03/21 10:35:18;;;;;;;16.20;14.50;;;25.30;48.30;;;;;;4982157;28;20050;-86
2022/03/21 10:37:51;;;;;;;16.90;14.52;;;25.40;48.80;;;;;;5005848;28;20496;-86
2022/03/21 10:40:45;;;;;;;16.13;13.73;;;25.80;45.50;;;;;;5003139;28;20070;-85
2022/03/21 10:43:16;;;;;;;16.55;13.85;;;23.30;43.20;;;;;;5007358;28;20060;-87
2022/03/21 10:45:51;;;;;;;17.15;14.75;;;23.80;46.10;;;;;;4979111;28;20076;-87
2022/03/21 10:48:35;;;;;;;15.43;13.23;;;24.20;46.90;;;;;;5006033;28;20038;-87
2022/03/21 10:51:03;;;;;;;17.52;14.43;;;24.10;44.70;;;;;;5004051;28;20396;-87
2022/03/21 10:53:39;;;;;;;18.00;14.65;;;25.00;46.40;;;;;;5006499;28;20492;-87
2022/03/21 10:56:09;;;;;;;18.55;15.60;;;25.90;46.70;;;;;;5001494;28;20042;-87
2022/03/21 10:58:37;;;;;;;16.88;13.93;;;26.40;45.50;;;;;;4993400;28;20103;-87
2022/03/21 11:01:13;;;;;;;16.92;14.73;;;25.00;43.70;;;;;;4992318;28;20046;-87
2022/03/21 11:03:42;;;;;;;17.70;14.77;;;24.30;41.90;;;;;;5006494;28;20056;-87
2022/03/21 11:06:12;;;;;;;19.33;14.05;;;23.90;43.60;;;;;;4988148;28;20042;-87
2022/03/21 11:08:39;;;;;;;16.25;13.93;;;24.30;43.00;;;;;;5001731;28;20128;-85
2022/03/21 11:11:05;;;;;;;17.35;15.30;;;24.70;44.20;;;;;;4988926;28;20035;-85
2022/03/21 11:13:32;;;;;;;17.10;14.00;;;24.10;43.20;;;;;;5009887;28;20065;-85
2022/03/21 11:15:59;;;;;;;17.10;15.30;;;22.80;44.40;;;;;;5010811;28;20129;-86
2022/03/21 11:18:28;;;;;;;17.30;15.02;;;22.10;44.90;;;;;;4989512;28;20057;-85
2022/03/21 11:20:56;;;;;;;19.63;14.82;;;22.40;45.60;;;;;;4995076;28;20061;-86
2022/03/21 11:23:22;;;;;;;19.42;14.60;;;22.90;46.40;;;;;;5008786;28;20103;-86
2022/03/21 11:26:13;;;;;;;17.50;14.57;;;23.10;45.50;;;;;;4990221;28;20057;-85
2022/03/21 11:29:17;;;;;;;19.50;15.20;;;23.30;44.40;;;;;;4997672;28;20435;-87
2022/03/21 11:31:51;;;;;;;17.98;14.80;;;23.60;46.20;;;;;;4991783;28;20046;-87
2022/03/21 11:34:35;;;;;;;18.70;14.70;;;24.30;44.60;;;;;;5007743;28;20433;-87
2022/03/21 11:37:01;;;;;;;17.33;13.80;;;24.50;44.20;;;;;;5010037;28;20038;-87
2022/03/21 11:39:27;;;;;;;15.48;13.63;;;25.60;43.20;;;;;;5014170;28;20360;-87
2022/03/21 11:41:58;;;;;;;15.07;13.48;;;24.80;43.30;;;;;;4993327;28;20042;-86
2022/03/21 11:44:24;;;;;;;17.80;14.07;;;25.00;43.50;;;;;;4993275;28;20041;-86
2022/03/21 11:46:50;;;;;;;16.42;14.15;;;24.50;42.00;;;;;;4994570;28;20034;-85
2022/03/21 11:49:22;;;;;;;17.20;14.18;;;24.40;42.10;;;;;;4989423;28;20042;-84
2022/03/21 11:52:00;;;;;;;16.30;13.88;;;24.30;42.70;;;;;;5009453;28;20045;-84
2022/03/21 11:54:31;;;;;;;16.70;14.90;;;25.80;42.20;;;;;;5010869;28;20034;-85
2022/03/21 11:57:03;;;;;;;16.60;14.25;;;24.60;41.00;;;;;;5010599;28;20045;-84
2022/03/21 11:59:32;;;;;;;17.95;14.10;;;25.70;43.90;;;;;;5011998;28;20069;-85
2022/03/21 12:02:22;;;;;;;16.67;13.90;;;26.40;42.60;;;;;;5011506;28;20069;-84
2022/03/21 12:05:02;;;;;;;18.15;15.00;;;26.30;41.00;;;;;;4994471;28;20037;-84
2022/03/21 12:07:29;;;;;;;17.38;14.13;;;26.70;40.30;;;;;;5011428;28;20037;-85
2022/03/21 12:09:57;;;;;;;18.48;15.48;;;26.60;40.70;;;;;;5011875;28;20044;-85
2022/03/21 12:12:43;;;;;;;16.98;14.27;;;25.80;40.30;;;;;;4995581;28;20377;-85
2022/03/21 12:15:31;;;;;;;16.45;14.70;;;25.70;42.10;;;;;;5017314;28;20089;-85
2022/03/21 12:17:57;;;;;;;16.38;13.90;;;25.60;41.20;;;;;;5010842;28;20069;-84
2022/03/21 12:20:23;;;;;;;18.08;13.93;;;25.60;40.90;;;;;;5001885;28;20049;-84
2022/03/21 12:22:51;;;;;;;18.58;14.85;;;25.90;41.90;;;;;;5013952;28;20038;-84
2022/03/21 12:25:29;;;;;;;17.30;14.75;;;26.00;41.50;;;;;;5007222;28;20488;-85
2022/03/21 12:27:57;;;;;;;19.50;14.57;;;26.30;40.50;;;;;;5005661;28;20038;-85
2022/03/21 12:33:14;;;;;;;15.93;13.75;;;27.70;41.00;;;;;;5011921;28;20966;-85
2022/03/21 12:35:40;;;;;;;17.40;14.65;;;26.50;38.80;;;;;;4995333;28;20490;-85
2022/03/21 12:38:21;;;;;;;18.10;14.52;;;25.50;39.40;;;;;;4992665;28;20048;-84
2022/03/21 12:40:47;;;;;;;18.77;14.80;;;26.10;39.90;;;;;;5002401;28;20045;-86
2022/03/21 12:43:27;;;;;;;20.75;14.43;;;25.20;39.80;;;;;;5009494;28;20042;-88
2022/03/21 12:46:09;;;;;;;17.42;14.10;;;25.90;42.00;;;;;;4989346;28;20038;-89
2022/03/21 12:48:46;;;;;;;17.60;15.43;;;26.40;40.80;;;;;;5012658;28;20078;-85
2022/03/21 12:51:15;;;;;;;18.85;16.08;;;26.20;40.90;;;;;;5005461;28;20043;-85
2022/03/21 12:53:46;;;;;;;22.52;16.45;;;25.20;39.80;;;;;;5010262;28;20041;-85
2022/03/21 12:56:18;;;;;;;17.98;15.23;;;24.80;41.20;;;;;;4985075;28;20043;-85